GVAC/SID METAR and TAF weather

Enter ICAO airport designator
Station Type Date Time Source
GVAC METAR 2022/09/26 10:00 UTC NOAA

GVAC 261000Z 35008KT 9999 SCT013 27/21 Q1012 NOSIG


Station Type Date Time Source
GVAC Decoded METAR 2022/09/26 10:00 UTC NOAA

Sal, Cape Verde (GVAC) 16-44N 022-57W 55M
Sep 26, 2022 - 06:00 AM EDT / 2022.09.26 1000 UTC
Wind: from the N (350 degrees) at 9 MPH (8 KT):0
Visibility: greater than 7 mile(s):0
Sky conditions: partly cloudy
Temperature: 80 F (27 C)
Dew Point: 69 F (21 C)
Relative Humidity: 69%
Pressure (altimeter): 29.88 in. Hg (1012 hPa)
ob: GVAC 261000Z 35008KT 9999 SCT013 27/21 Q1012 NOSIG
cycle: 10

Station Type Date Time Source
GVAC TAF 2022/09/26 06:58 UTC NOAA

TAF GVAC 260500Z 2606/2712 02010KT 9999 SCT013
TEMPO 2610/2618 BKN013

Example: see airport list